createdAt,value
2019-03-31T00:01:31.563Z,32.63
2019-03-31T00:04:00.907Z,38.27
2019-03-31T00:06:30.274Z,40.37
2019-03-31T00:08:59.752Z,37.10
2019-03-31T00:11:29.271Z,40.60
2019-03-31T00:13:58.800Z,36.33
2019-03-31T00:16:28.502Z,37.30
2019-03-31T00:18:57.962Z,43.77
2019-03-31T00:21:27.396Z,37.80
2019-03-31T00:23:56.639Z,34.93
2019-03-31T00:26:26.101Z,42.80
2019-03-31T00:28:55.349Z,42.57
2019-03-31T00:31:24.821Z,43.93
2019-03-31T00:33:54.105Z,39.17
2019-03-31T00:36:23.588Z,36.70
2019-03-31T00:38:54.440Z,42.00
2019-03-31T00:41:24.762Z,41.77
2019-03-31T00:43:54.415Z,36.03
2019-03-31T00:46:23.743Z,46.40
2019-03-31T00:48:53.535Z,43.97
2019-03-31T00:51:22.886Z,38.10
2019-03-31T00:53:52.961Z,37.17
2019-03-31T00:56:22.451Z,39.23
2019-03-31T00:58:52.176Z,42.23
2019-03-31T01:01:36.923Z,48.87
2019-03-31T01:04:06.579Z,39.40
2019-03-31T01:06:36.640Z,38.67
2019-03-31T01:09:20.682Z,34.20
2019-03-31T01:11:50.499Z,42.93
2019-03-31T01:14:20.637Z,39.17
2019-03-31T01:16:50.823Z,38.57
2019-03-31T01:19:21.678Z,42.10
2019-03-31T01:21:51.015Z,39.07
2019-03-31T01:24:20.356Z,36.53
2019-03-31T01:26:49.730Z,39.53
2019-03-31T01:29:19.634Z,37.63
2019-03-31T01:31:50.820Z,38.03
2019-03-31T01:34:21.408Z,34.20
2019-03-31T01:36:50.802Z,40.03
2019-03-31T01:39:21.914Z,31.30
2019-03-31T01:41:51.340Z,37.10
2019-03-31T01:44:20.703Z,40.50
2019-03-31T01:46:50.103Z,46.23
2019-03-31T01:49:19.358Z,36.93
2019-03-31T01:51:48.886Z,39.63
2019-03-31T01:54:18.228Z,39.87
2019-03-31T01:56:47.580Z,38.30
2019-03-31T01:59:17.159Z,42.40
2019-03-31T02:01:47.038Z,32.77
2019-03-31T02:04:16.453Z,39.80
2019-03-31T02:06:46.120Z,35.50
2019-03-31T02:09:15.539Z,44.50
2019-03-31T02:11:44.807Z,43.57
2019-03-31T02:14:14.269Z,41.33
2019-03-31T02:16:43.530Z,50.30
2019-03-31T02:19:12.992Z,37.13
2019-03-31T02:21:42.454Z,49.00
2019-03-31T02:24:11.787Z,42.77
2019-03-31T02:26:41.041Z,44.43
2019-03-31T02:29:29.327Z,36.00
2019-03-31T02:31:58.612Z,38.30
2019-03-31T02:34:28.514Z,44.80
2019-03-31T02:36:57.787Z,43.50
2019-03-31T02:39:27.425Z,43.40
2019-03-31T02:41:56.940Z,40.60
2019-03-31T02:44:26.680Z,38.07
2019-03-31T02:46:56.099Z,38.03
2019-03-31T02:49:25.504Z,49.60
2019-03-31T02:51:55.258Z,37.70
2019-03-31T02:54:25.320Z,41.27
2019-03-31T02:56:54.911Z,36.30
2019-03-31T02:59:24.693Z,37.80
2019-03-31T03:01:54.999Z,40.40
2019-03-31T03:04:25.993Z,45.27
2019-03-31T03:06:56.454Z,37.70
2019-03-31T03:09:28.785Z,45.03
2019-03-31T03:11:59.306Z,41.20
2019-03-31T03:14:30.412Z,38.37
2019-03-31T03:16:59.734Z,39.23
2019-03-31T03:19:29.151Z,35.57
2019-03-31T03:21:58.811Z,36.97
2019-03-31T03:24:28.204Z,34.47
2019-03-31T03:26:57.547Z,38.93
2019-03-31T03:29:26.902Z,37.37
2019-03-31T03:31:56.285Z,38.60
2019-03-31T03:34:25.765Z,36.50
2019-03-31T03:36:55.144Z,35.13
2019-03-31T03:39:24.574Z,42.07
2019-03-31T03:41:53.992Z,45.40
2019-03-31T03:44:23.331Z,35.27
2019-03-31T03:46:52.661Z,41.03
2019-03-31T03:49:22.318Z,36.30
2019-03-31T03:51:51.771Z,49.00
2019-03-31T03:54:21.104Z,38.30
2019-03-31T03:56:51.073Z,43.47
2019-03-31T03:59:20.408Z,41.30
2019-03-31T04:01:49.679Z,41.43
2019-03-31T04:04:19.141Z,42.07
2019-03-31T04:06:48.796Z,42.50
2019-03-31T04:09:18.272Z,44.40
2019-03-31T04:11:47.723Z,48.40
2019-03-31T04:14:17.261Z,41.57
2019-03-31T04:16:47.026Z,42.00
2019-03-31T04:19:16.446Z,38.33
2019-03-31T04:21:45.802Z,36.23
2019-03-31T04:24:15.163Z,39.20
2019-03-31T04:26:44.961Z,43.80
2019-03-31T04:29:14.255Z,34.50
2019-03-31T04:31:43.494Z,40.33
2019-03-31T04:34:12.989Z,43.13
2019-03-31T04:36:42.552Z,41.73
2019-03-31T04:39:12.300Z,37.67
2019-03-31T04:41:41.593Z,41.77
2019-03-31T04:44:11.010Z,46.07
2019-03-31T04:46:40.871Z,34.83
2019-03-31T04:49:10.245Z,40.00
2019-03-31T04:51:39.652Z,43.33
2019-03-31T04:54:09.258Z,37.30
2019-03-31T04:56:38.574Z,41.60
2019-03-31T04:59:08.067Z,42.40
2019-03-31T05:01:37.610Z,43.17
2019-03-31T05:04:07.051Z,38.00
2019-03-31T05:06:36.334Z,40.97
2019-03-31T05:09:06.763Z,34.87
2019-03-31T05:11:36.053Z,43.63
2019-03-31T05:14:05.530Z,41.63
2019-03-31T05:16:34.908Z,45.77
2019-03-31T05:19:04.449Z,43.57
2019-03-31T05:21:33.769Z,42.43
2019-03-31T05:24:03.133Z,41.50
2019-03-31T05:26:32.792Z,46.63
2019-03-31T05:29:02.229Z,37.47
2019-03-31T05:31:31.801Z,35.23
2019-03-31T05:34:01.214Z,42.67
2019-03-31T05:36:30.539Z,43.10
2019-03-31T05:39:00.159Z,48.07
2019-03-31T05:41:29.638Z,39.83
2019-03-31T05:44:05.457Z,38.77
2019-03-31T05:46:29.955Z,37.33
2019-03-31T05:48:59.376Z,36.90
2019-03-31T05:51:28.774Z,36.80
2019-03-31T05:53:58.112Z,42.20
2019-03-31T05:56:27.371Z,34.27
2019-03-31T05:58:56.816Z,32.57
2019-03-31T06:01:26.466Z,40.50
2019-03-31T06:03:55.902Z,38.27
2019-03-31T06:06:25.271Z,40.70
2019-03-31T06:08:54.823Z,52.47
2019-03-31T06:11:24.089Z,41.80
2019-03-31T06:13:53.553Z,42.30
2019-03-31T06:16:22.915Z,46.00
2019-03-31T06:18:52.539Z,46.60
2019-03-31T06:21:21.820Z,41.53
2019-03-31T06:23:51.226Z,39.77
2019-03-31T06:26:20.502Z,45.50
2019-03-31T06:28:49.979Z,35.20
2019-03-31T06:31:19.470Z,44.20
2019-03-31T06:33:49.122Z,39.97
2019-03-31T06:36:18.589Z,40.93
2019-03-31T06:38:47.864Z,50.23
2019-03-31T06:41:17.163Z,46.60
2019-03-31T06:43:46.998Z,39.07
2019-03-31T06:46:16.306Z,43.67
2019-03-31T06:48:45.799Z,52.07
2019-03-31T06:51:17.121Z,35.00
2019-03-31T06:53:46.153Z,38.27
2019-03-31T06:56:15.543Z,45.00
2019-03-31T06:58:44.881Z,46.50
2019-03-31T07:01:14.643Z,42.83
2019-03-31T07:03:43.947Z,45.00
2019-03-31T07:06:13.676Z,51.57
2019-03-31T07:08:42.965Z,46.00
2019-03-31T07:11:12.458Z,40.70
2019-03-31T07:13:41.788Z,45.57
2019-03-31T07:16:11.193Z,48.53
2019-03-31T07:18:40.883Z,42.60
2019-03-31T07:21:10.294Z,48.47
2019-03-31T07:23:40.012Z,46.60
2019-03-31T07:26:09.482Z,48.63
2019-03-31T07:28:38.801Z,43.87
2019-03-31T07:31:08.087Z,49.73
2019-03-31T07:33:37.707Z,51.37
2019-03-31T07:36:07.012Z,42.20
2019-03-31T07:38:39.321Z,47.67
2019-03-31T07:41:13.017Z,53.40
2019-03-31T07:43:38.498Z,52.53
2019-03-31T07:46:07.932Z,70.97
2019-03-31T07:48:37.387Z,68.37
2019-03-31T07:51:06.722Z,53.60
2019-03-31T07:53:36.000Z,59.77
2019-03-31T07:56:05.316Z,50.70
2019-03-31T07:58:34.677Z,56.10
2019-03-31T08:01:04.189Z,58.93
2019-03-31T08:03:33.500Z,55.43
2019-03-31T08:06:03.037Z,67.90
2019-03-31T08:08:32.364Z,63.53
2019-03-31T08:11:02.037Z,64.67
2019-03-31T08:13:32.140Z,57.20
2019-03-31T08:16:02.029Z,62.10
2019-03-31T08:18:31.364Z,64.43
2019-03-31T08:21:00.891Z,63.43
2019-03-31T08:23:30.251Z,66.30
2019-03-31T08:26:00.026Z,74.17
2019-03-31T08:28:29.390Z,69.80
2019-03-31T08:30:58.825Z,70.73
2019-03-31T08:33:28.130Z,70.10
2019-03-31T08:35:57.534Z,77.13
2019-03-31T08:38:27.214Z,58.37
2019-03-31T08:40:56.711Z,67.23
2019-03-31T08:43:25.986Z,93.20
2019-03-31T08:45:55.577Z,69.40
2019-03-31T08:48:25.036Z,57.03
2019-03-31T08:50:54.578Z,66.70
2019-03-31T08:53:24.056Z,65.53
2019-03-31T08:55:53.346Z,66.57
2019-03-31T08:58:25.047Z,65.43
2019-03-31T09:00:57.672Z,60.80
2019-03-31T09:03:26.973Z,67.00
2019-03-31T09:06:02.209Z,74.07
2019-03-31T09:08:28.032Z,63.93
2019-03-31T09:10:57.349Z,62.50
2019-03-31T09:13:26.722Z,64.03
2019-03-31T09:15:56.259Z,64.23
2019-03-31T09:18:25.696Z,67.23
2019-03-31T09:20:55.043Z,67.53
2019-03-31T09:23:24.378Z,65.53
2019-03-31T09:25:54.508Z,73.60
2019-03-31T09:28:23.867Z,71.80
2019-03-31T09:30:53.235Z,70.57
2019-03-31T09:33:22.580Z,69.00
2019-03-31T09:35:51.896Z,67.50
2019-03-31T09:38:21.278Z,80.77
2019-03-31T09:40:50.679Z,86.97
2019-03-31T09:43:20.216Z,70.13
2019-03-31T09:45:49.482Z,71.93
2019-03-31T09:48:18.808Z,84.80
2019-03-31T09:50:48.726Z,69.20
2019-03-31T09:53:18.588Z,74.13
2019-03-31T09:55:48.555Z,76.07
2019-03-31T09:58:17.976Z,74.40
2019-03-31T10:00:49.588Z,83.73
2019-03-31T10:03:20.306Z,79.67
2019-03-31T10:05:50.107Z,79.03
2019-03-31T10:08:22.038Z,70.97
2019-03-31T10:10:51.089Z,83.20
2019-03-31T10:13:20.703Z,74.57
2019-03-31T10:15:50.004Z,76.77
2019-03-31T10:18:19.639Z,70.93
2019-03-31T10:20:48.892Z,85.60
2019-03-31T10:23:18.663Z,88.03
2019-03-31T10:25:48.000Z,132.67
2019-03-31T10:28:18.359Z,89.07
2019-03-31T10:30:47.607Z,74.20
2019-03-31T10:33:16.988Z,75.13
2019-03-31T10:35:46.444Z,82.03
2019-03-31T10:38:15.992Z,85.83
2019-03-31T10:40:45.333Z,79.97
2019-03-31T10:43:15.081Z,70.43
2019-03-31T10:45:44.505Z,78.67
2019-03-31T10:48:20.237Z,79.17
2019-03-31T10:50:44.931Z,71.83
2019-03-31T10:53:14.318Z,74.60
2019-03-31T10:55:43.643Z,80.30
2019-03-31T10:58:12.942Z,75.00
2019-03-31T11:00:44.566Z,68.53
2019-03-31T11:03:13.436Z,75.70
2019-03-31T11:05:42.794Z,65.70
2019-03-31T11:08:12.226Z,72.90
2019-03-31T11:10:41.642Z,76.63
2019-03-31T11:13:12.031Z,74.43
2019-03-31T11:15:41.320Z,84.90
2019-03-31T11:18:10.756Z,69.10
2019-03-31T11:20:40.178Z,74.57
2019-03-31T11:23:18.190Z,68.77
2019-03-31T11:25:47.589Z,78.83
2019-03-31T11:28:17.059Z,73.60
2019-03-31T11:30:46.720Z,80.63
2019-03-31T11:33:17.119Z,75.27
2019-03-31T11:35:46.619Z,79.10
2019-03-31T11:38:16.568Z,82.30
2019-03-31T11:40:47.103Z,75.70
2019-03-31T11:43:16.558Z,72.13
2019-03-31T11:45:45.896Z,84.40
2019-03-31T11:48:15.285Z,72.57
2019-03-31T11:50:44.654Z,77.40
2019-03-31T11:53:14.047Z,82.77
2019-03-31T11:55:43.430Z,86.83
2019-03-31T11:58:12.839Z,80.70
2019-03-31T12:00:48.088Z,82.23
2019-03-31T12:03:17.544Z,75.17
2019-03-31T12:05:46.906Z,85.23
2019-03-31T12:08:16.258Z,68.23
2019-03-31T12:10:45.567Z,78.93
2019-03-31T12:13:14.945Z,83.73
2019-03-31T12:15:44.573Z,69.87
2019-03-31T12:18:13.971Z,71.27
2019-03-31T12:20:43.303Z,94.57
2019-03-31T12:23:12.679Z,81.37
2019-03-31T12:25:42.014Z,66.40
2019-03-31T12:28:11.354Z,69.70
2019-03-31T12:30:40.991Z,92.97
2019-03-31T12:33:10.420Z,75.07
2019-03-31T12:35:39.697Z,72.43
2019-03-31T12:38:09.065Z,70.70
2019-03-31T12:40:38.592Z,79.03
2019-03-31T12:43:08.319Z,73.73
2019-03-31T12:45:37.765Z,79.40
2019-03-31T12:48:07.095Z,83.03
2019-03-31T12:50:36.364Z,78.10
2019-03-31T12:53:06.267Z,97.23
2019-03-31T12:55:35.745Z,66.87
2019-03-31T12:58:05.208Z,79.67
2019-03-31T13:00:34.661Z,73.40
2019-03-31T13:03:04.207Z,73.87
2019-03-31T13:05:33.504Z,80.90
2019-03-31T13:08:02.815Z,65.27
2019-03-31T13:10:32.338Z,62.83
2019-03-31T13:13:02.057Z,44.43
2019-03-31T13:15:32.168Z,47.80
2019-03-31T13:18:01.978Z,65.53
2019-03-31T13:20:32.022Z,55.33
2019-03-31T13:23:01.313Z,46.30
2019-03-31T13:25:30.650Z,49.77
2019-03-31T13:28:00.378Z,45.20
2019-03-31T13:30:29.705Z,43.17
2019-03-31T13:32:59.079Z,59.87
2019-03-31T13:35:28.352Z,49.93
2019-03-31T13:38:10.429Z,57.70
2019-03-31T13:40:29.141Z,43.53
2019-03-31T13:42:58.427Z,64.77
2019-03-31T13:45:27.768Z,48.70
2019-03-31T13:47:58.821Z,55.80
2019-03-31T13:50:28.806Z,69.30
2019-03-31T13:52:58.580Z,60.27
2019-03-31T13:55:28.574Z,72.37
2019-03-31T13:57:58.547Z,68.27
2019-03-31T14:00:37.221Z,67.63
2019-03-31T14:03:06.924Z,63.27
2019-03-31T14:05:36.326Z,70.63
2019-03-31T14:08:06.331Z,71.13
2019-03-31T14:10:36.208Z,51.53
2019-03-31T14:13:06.100Z,62.37
2019-03-31T14:15:35.702Z,73.83
2019-03-31T14:18:05.459Z,66.87
2019-03-31T14:20:35.292Z,64.17
2019-03-31T14:23:04.634Z,61.27
2019-03-31T14:25:34.039Z,50.97
2019-03-31T14:28:03.713Z,61.10
2019-03-31T14:30:33.522Z,52.47
2019-03-31T14:33:02.894Z,52.27
2019-03-31T14:35:32.568Z,55.33
2019-03-31T14:38:01.927Z,55.17
2019-03-31T14:40:31.215Z,48.77
2019-03-31T14:43:00.797Z,57.90
2019-03-31T14:45:31.903Z,52.93
2019-03-31T14:48:01.562Z,56.60
2019-03-31T14:50:38.884Z,55.63
2019-03-31T14:53:08.712Z,54.33
2019-03-31T14:55:38.542Z,47.93
2019-03-31T14:58:08.616Z,45.40
2019-03-31T15:00:38.625Z,62.13
2019-03-31T15:03:09.985Z,51.97
2019-03-31T15:05:39.592Z,50.47
2019-03-31T15:08:08.939Z,51.10
2019-03-31T15:10:38.277Z,52.17
2019-03-31T15:13:07.663Z,48.53
2019-03-31T15:15:37.360Z,57.40
2019-03-31T15:18:06.875Z,57.10
2019-03-31T15:20:36.212Z,47.60
2019-03-31T15:23:05.522Z,48.23
2019-03-31T15:25:35.076Z,53.53
2019-03-31T15:28:04.531Z,42.50
2019-03-31T15:30:33.922Z,46.37
2019-03-31T15:33:03.405Z,51.27
2019-03-31T15:35:32.866Z,46.77
2019-03-31T15:38:02.493Z,49.23
2019-03-31T15:40:31.848Z,45.50
2019-03-31T15:43:01.381Z,51.17
2019-03-31T15:45:31.172Z,47.13
2019-03-31T15:48:00.495Z,43.97
2019-03-31T15:50:29.874Z,54.60
2019-03-31T15:52:59.780Z,56.70
2019-03-31T15:55:30.487Z,50.73
2019-03-31T15:57:59.886Z,47.40
2019-03-31T16:00:29.375Z,44.23
2019-03-31T16:02:58.818Z,44.07
2019-03-31T16:05:28.275Z,37.20
2019-03-31T16:07:57.086Z,37.60
2019-03-31T16:10:25.924Z,41.60
2019-03-31T16:12:54.979Z,30.90
2019-03-31T16:15:23.818Z,30.83
2019-03-31T16:17:52.654Z,33.53
2019-03-31T16:20:21.582Z,31.50
2019-03-31T16:22:50.432Z,41.13
2019-03-31T16:25:28.596Z,39.87
2019-03-31T16:27:57.832Z,38.57
2019-03-31T16:30:26.745Z,45.63
2019-03-31T16:32:55.868Z,28.43
2019-03-31T16:35:24.703Z,27.13
2019-03-31T16:37:53.433Z,30.57
2019-03-31T16:40:22.279Z,31.40
2019-03-31T16:42:51.437Z,30.70
2019-03-31T16:45:20.191Z,29.83
2019-03-31T16:47:49.121Z,27.30
2019-03-31T16:50:18.099Z,29.77
2019-03-31T16:52:46.834Z,27.97
2019-03-31T16:55:15.821Z,29.13
2019-03-31T16:57:44.633Z,31.57
2019-03-31T17:00:13.916Z,29.47
2019-03-31T17:02:42.718Z,27.07
2019-03-31T17:05:21.794Z,33.83
2019-03-31T17:07:43.246Z,27.27
2019-03-31T17:10:12.392Z,27.93
2019-03-31T17:12:41.219Z,28.03
2019-03-31T17:15:10.256Z,27.43
2019-03-31T17:17:39.345Z,27.87
2019-03-31T17:20:08.811Z,28.67
2019-03-31T17:22:37.579Z,29.40
2019-03-31T17:25:06.996Z,30.27
2019-03-31T17:27:35.746Z,30.10
2019-03-31T17:30:12.716Z,27.33
2019-03-31T17:32:41.630Z,28.17
2019-03-31T17:35:10.523Z,29.73
2019-03-31T17:37:39.602Z,29.83
2019-03-31T17:40:08.548Z,32.50
2019-03-31T17:42:37.433Z,27.43
2019-03-31T17:45:06.887Z,26.60
2019-03-31T17:47:35.865Z,32.07
2019-03-31T17:50:05.490Z,29.43
2019-03-31T17:52:34.431Z,28.97
2019-03-31T17:55:03.183Z,28.40
2019-03-31T17:57:32.040Z,27.83
2019-03-31T18:00:00.907Z,27.17
2019-03-31T18:02:30.011Z,27.63
2019-03-31T18:04:58.854Z,25.63
2019-03-31T18:07:27.932Z,25.50
2019-03-31T18:09:57.087Z,26.20
2019-03-31T18:12:26.316Z,25.73
2019-03-31T18:14:55.376Z,28.17
2019-03-31T18:17:24.308Z,27.13
2019-03-31T18:19:53.431Z,26.73
2019-03-31T18:22:22.226Z,25.87
2019-03-31T18:24:51.043Z,26.00
2019-03-31T18:27:19.943Z,24.80
2019-03-31T18:29:48.775Z,25.37
2019-03-31T18:32:17.625Z,25.67
2019-03-31T18:34:46.514Z,26.37
2019-03-31T18:37:15.378Z,24.90
2019-03-31T18:39:44.091Z,26.97
2019-03-31T18:42:14.181Z,29.03
2019-03-31T18:44:43.322Z,25.93
2019-03-31T18:47:12.143Z,26.37
2019-03-31T18:49:41.227Z,26.73
2019-03-31T18:52:10.471Z,26.60
2019-03-31T18:55:01.395Z,27.10
2019-03-31T18:57:49.386Z,26.43
2019-03-31T19:00:36.117Z,27.80
2019-03-31T19:03:17.070Z,27.97
2019-03-31T19:06:06.173Z,28.77
2019-03-31T19:09:04.331Z,46.70
2019-03-31T19:11:38.665Z,26.17
2019-03-31T19:14:29.774Z,29.70
2019-03-31T19:17:12.923Z,29.70
2019-03-31T19:20:00.959Z,25.90
2019-03-31T19:22:51.752Z,26.00
2019-03-31T19:25:29.683Z,25.83
2019-03-31T19:28:16.397Z,26.03
2019-03-31T19:31:03.265Z,28.50
2019-03-31T19:33:53.983Z,27.77
2019-03-31T19:36:39.987Z,25.93
2019-03-31T19:39:32.202Z,26.77
2019-03-31T19:42:22.202Z,27.43
2019-03-31T19:45:06.742Z,31.17
2019-03-31T19:47:53.580Z,27.47
2019-03-31T19:50:40.279Z,27.07
2019-03-31T19:53:26.848Z,27.30
2019-03-31T19:56:14.463Z,27.60
2019-03-31T19:58:54.075Z,30.97
2019-03-31T20:01:33.291Z,27.50
2019-03-31T20:04:10.600Z,27.57
2019-03-31T20:06:57.832Z,27.60
2019-03-31T20:09:39.237Z,27.13
2019-03-31T20:12:30.807Z,36.17
2019-03-31T20:15:22.969Z,28.00
2019-03-31T20:18:02.628Z,30.73
2019-03-31T20:20:47.554Z,31.63
2019-03-31T20:23:26.724Z,27.67
2019-03-31T20:26:14.714Z,31.03
2019-03-31T20:29:02.854Z,43.87
2019-03-31T20:31:44.592Z,53.63
2019-03-31T20:34:31.581Z,27.60
2019-03-31T20:37:26.836Z,29.13
2019-03-31T20:40:14.636Z,28.70
2019-03-31T20:43:12.312Z,26.43
2019-03-31T20:45:41.042Z,25.70
2019-03-31T20:48:09.991Z,25.37
2019-03-31T20:50:38.884Z,26.60
2019-03-31T20:53:07.715Z,30.13
2019-03-31T20:55:36.484Z,26.77
2019-03-31T20:58:06.347Z,26.70
2019-03-31T21:00:35.731Z,25.53
2019-03-31T21:03:04.710Z,28.83
2019-03-31T21:05:33.498Z,25.93
2019-03-31T21:08:02.446Z,32.50
2019-03-31T21:10:31.327Z,30.03
2019-03-31T21:13:00.191Z,27.83
2019-03-31T21:15:29.024Z,23.60
2019-03-31T21:17:57.824Z,25.27
2019-03-31T21:20:26.599Z,24.63
2019-03-31T21:22:55.651Z,24.30
2019-03-31T21:25:24.895Z,23.73
2019-03-31T21:27:53.863Z,24.13
2019-03-31T21:30:22.687Z,23.83
2019-03-31T21:32:51.504Z,25.10
2019-03-31T21:35:20.363Z,24.73
2019-03-31T21:37:49.200Z,25.43
2019-03-31T21:40:17.994Z,25.97
2019-03-31T21:42:46.791Z,24.37
2019-03-31T21:45:15.583Z,25.37
2019-03-31T21:47:44.349Z,24.00
2019-03-31T21:50:13.715Z,24.50
2019-03-31T21:52:42.521Z,33.07
2019-03-31T21:55:11.575Z,25.17
2019-03-31T21:57:40.722Z,24.83
2019-03-31T22:00:10.524Z,25.80
2019-03-31T22:02:39.554Z,24.40
2019-03-31T22:05:08.972Z,24.50
2019-03-31T22:07:37.880Z,24.17
2019-03-31T22:10:07.257Z,23.60
2019-03-31T22:12:36.173Z,25.50
2019-03-31T22:15:05.684Z,26.00
2019-03-31T22:17:34.515Z,23.20
2019-03-31T22:20:03.522Z,23.83
2019-03-31T22:22:32.328Z,23.00
2019-03-31T22:25:01.127Z,24.60
2019-03-31T22:27:30.169Z,42.37
2019-03-31T22:29:59.026Z,25.50
2019-03-31T22:32:27.764Z,23.40
2019-03-31T22:34:56.647Z,24.17
2019-03-31T22:37:25.467Z,24.67
2019-03-31T22:39:54.456Z,22.87
2019-03-31T22:42:23.202Z,22.90
2019-03-31T22:44:52.059Z,23.80
2019-03-31T22:47:21.317Z,23.03
2019-03-31T22:49:50.250Z,24.07
2019-03-31T22:52:19.096Z,23.20
2019-03-31T22:54:47.962Z,23.70
2019-03-31T22:57:16.902Z,26.93
2019-03-31T22:59:45.726Z,30.17
2019-03-31T23:02:14.711Z,23.23
2019-03-31T23:04:43.603Z,23.20
2019-03-31T23:07:12.621Z,23.10
2019-03-31T23:09:41.457Z,31.63
2019-03-31T23:12:10.381Z,26.53
2019-03-31T23:14:39.476Z,26.20
2019-03-31T23:17:08.221Z,25.00
2019-03-31T23:19:37.125Z,27.57
2019-03-31T23:22:06.945Z,24.70
2019-03-31T23:24:35.724Z,23.67
2019-03-31T23:27:05.027Z,25.20
2019-03-31T23:29:33.808Z,23.93
2019-03-31T23:32:02.573Z,24.00
2019-03-31T23:34:31.661Z,24.80
2019-03-31T23:37:00.481Z,23.17
2019-03-31T23:39:29.392Z,26.60
2019-03-31T23:41:58.144Z,25.90
2019-03-31T23:44:27.096Z,23.67
2019-03-31T23:46:56.597Z,23.70
2019-03-31T23:49:25.383Z,23.20
2019-03-31T23:51:54.536Z,23.43
2019-03-31T23:54:23.452Z,25.40
2019-03-31T23:56:52.262Z,27.90
2019-03-31T23:59:21.095Z,23.30
